メインページ
METAR-TAF:

METAR-TAF

空港 :

カンザスシティ, ミズーリ州, アメリカ合衆国

カンザスシティ国際空港

緯度: 39-17-50N, 経度: 094-43-50W, 海抜: 312m

現時点の気象観測

当レポートは41分前の21:53(UTC)に作成
南/南西の風 7kt
気温 27°C
湿度 89%
気圧 1016 hPa
視程: 14.5km
高度1900ftの雲は散在している
高度10000ftの千切れ雲あり
高度15000ftの曇り

METAR: KMCI 262153Z 20007KT 9SM SCT019 BKN100 OVC150 27/25 A2999 RMK AO2 SLP145 T02720250

時間: 17:34 (22:34 UTC)

予報

当レポートは1時間43分前の20:51(UTC)に作成
予報は26日の 21時(UTC)から 27日の 18時(UTC)まで有効
の風 10kt
視程: 9.7km
高度6000ftの雲は散在している
高度10000ftの千切れ雲あり
弱いにわか雨
26日の 2200時(UTC)から
南/南東の風 10kt
視程: 10km
高度6000ftの雲は散在している
高度10000ftの千切れ雲あり
27日の 0400時(UTC)から
東/南東の風 8kt
視程: 10km
高度5000ftの千切れ雲あり, 積乱雲.
近辺で激しい雷雨
27日の 0800時(UTC)から
南東の風 7kt
視程: 10km
高度2000ftの雲は散在している
高度3000ftの千切れ雲あり
27日の 1600時(UTC)から
北東の風 7kt
視程: 10km
高度3000ftの雲は散在している

TAF: KMCI 262051Z 2621/2718 19010KT 6SM -SHRA SCT060 BKN100 FM262200 16010KT P6SM SCT060 BKN100 FM270400 12008KT P6SM VCTS BKN050CB FM270800 13007KT P6SM SCT020 BKN030 FM271600 04007KT P6SM SCT030

4,000以上の空港の気象観測と天気予報(METAR報とTAF報)

利用可能な観測所は地図上に黄色い丸と赤い丸で示す。

丸の上にカーソルを重ねると観測所名を参照できる。

次にクリックすると気象観測と天気予報を参照できる。

マップの切り替え:黒色「×」印の緑ボタンをクリックして拡大、「-」印の緑ボタンをクリックして縮小、緑色の三角印をクリックして隣りの地図に切り替え


METAR-TAF: